Al Basrah, Iraq
Current Conditions -  °F | °C
As of 4:00 PM on Friday 19 Dec 2014 (Local Time) from ORMM Reporting Station
Haze Haze  
Wind Chill: 63°   Ceiling: Unl
Heat Index: 63°   Visibility: 3mi
Dew Point: 48°   Wind: 7mph
Humidity: 59%   Direction: 70°ENE
Pressure: 30.15"   Gusts: NA
Location:  30.5°N, 47.83°E
Report Text: ORMM 191300Z 07006KT 5000 HZ NSC 17/09 Q1021 NOSIG
Loading
Personal Weather Stations






























Interactive Weather Map New forecast layout! Learn more

10-Day Weather Forecast

Advertisements
Track Severe Weather on mobile